createdAt,value
2023-04-30T00:00:00.000Z,10.28
2023-04-30T00:15:00.000Z,8.28
2023-04-30T00:30:00.000Z,8.28
2023-04-30T00:45:00.000Z,8.06
2023-04-30T01:00:00.000Z,7.4
2023-04-30T01:15:00.000Z,7.27
2023-04-30T01:30:00.000Z,7.41
2023-04-30T01:45:00.000Z,7.79
2023-04-30T02:00:00.000Z,7.84
2023-04-30T02:15:00.000Z,8.41
2023-04-30T02:30:00.000Z,8.69
2023-04-30T02:45:00.000Z,11.24
2023-04-30T03:00:00.000Z,9.45
2023-04-30T03:15:00.000Z,8.62
2023-04-30T03:30:00.000Z,8.88
2023-04-30T03:45:00.000Z,8.88
2023-04-30T04:00:00.000Z,9.09
2023-04-30T04:15:00.000Z,9.61
2023-04-30T04:30:00.000Z,10.02
2023-04-30T04:45:00.000Z,10.07
2023-04-30T05:00:00.000Z,10.35
2023-04-30T05:15:00.000Z,10.13
2023-04-30T05:30:00.000Z,9.72
2023-04-30T05:45:00.000Z,10.15
2023-04-30T06:00:00.000Z,10.19
2023-04-30T06:15:00.000Z,10.27
2023-04-30T06:30:00.000Z,9.75
2023-04-30T06:45:00.000Z,10.04
2023-04-30T07:00:00.000Z,10.07
2023-04-30T07:15:00.000Z,10.14
2023-04-30T07:30:00.000Z,9.91
2023-04-30T07:45:00.000Z,9.32
2023-04-30T08:00:00.000Z,8.36
2023-04-30T08:15:00.000Z,7.67
2023-04-30T08:30:00.000Z,7.29
2023-04-30T08:45:00.000Z,6.73
2023-04-30T09:00:00.000Z,6.29
2023-04-30T09:15:00.000Z,5.47
2023-04-30T09:30:00.000Z,5.24
2023-04-30T09:45:00.000Z,5.25
2023-04-30T10:00:00.000Z,5.13
2023-04-30T10:15:00.000Z,5.12
2023-04-30T10:30:00.000Z,5.2
2023-04-30T10:45:00.000Z,5.07
2023-04-30T11:00:00.000Z,5.18
2023-04-30T11:15:00.000Z,4.82
2023-04-30T11:30:00.000Z,4.05
2023-04-30T11:45:00.000Z,4.85
2023-04-30T12:00:00.000Z,3.65
2023-04-30T12:15:00.000Z,3.95
2023-04-30T12:30:00.000Z,3.96
2023-04-30T12:45:00.000Z,3.47
2023-04-30T13:00:00.000Z,3.48
2023-04-30T13:15:00.000Z,3.49
2023-04-30T13:30:00.000Z,3.34
2023-04-30T13:45:00.000Z,3.52
2023-04-30T14:00:00.000Z,3.6
2023-04-30T14:15:00.000Z,3.43
2023-04-30T14:30:00.000Z,3.62
2023-04-30T14:45:00.000Z,3.62
2023-04-30T15:00:00.000Z,4.56
2023-04-30T15:15:00.000Z,4.88
2023-04-30T15:30:00.000Z,5.2
2023-04-30T15:45:00.000Z,9.31
2023-04-30T16:00:00.000Z,11.67
2023-04-30T16:15:00.000Z,9.66
2023-04-30T16:30:00.000Z,8.64
2023-04-30T16:45:00.000Z,7.67
2023-04-30T17:00:00.000Z,6.36
2023-04-30T17:15:00.000Z,6.4
2023-04-30T17:30:00.000Z,6.02
2023-04-30T17:45:00.000Z,5.67
2023-04-30T18:00:00.000Z,5.6
2023-04-30T18:15:00.000Z,6.81
2023-04-30T18:30:00.000Z,6.29
2023-04-30T18:45:00.000Z,5.36
2023-04-30T19:00:00.000Z,5.26
2023-04-30T19:15:00.000Z,5.32
2023-04-30T19:30:00.000Z,5.72
2023-04-30T19:45:00.000Z,5.2
2023-04-30T20:00:00.000Z,5.26
2023-04-30T20:15:00.000Z,5.16
2023-04-30T20:30:00.000Z,5.25
2023-04-30T20:45:00.000Z,6.66
2023-04-30T21:00:00.000Z,5.75
2023-04-30T21:15:00.000Z,6.27
2023-04-30T21:30:00.000Z,9.21
2023-04-30T21:45:00.000Z,10.16
2023-04-30T22:00:00.000Z,10.02
2023-04-30T22:15:00.000Z,9.96
2023-04-30T22:30:00.000Z,11.14
2023-04-30T22:45:00.000Z,10.81
2023-04-30T23:00:00.000Z,11.74
2023-04-30T23:15:00.000Z,13.29
2023-04-30T23:30:00.000Z,12.48
2023-04-30T23:45:00.000Z,13.7
